sensor_id;sensor_type;location;lat;lon;timestamp;temperature;humidity
24456;DHT22;12628;50.860;5.714;2023-02-26T00:01:50;0.40;1.80
24456;DHT22;12628;50.860;5.714;2023-02-26T00:04:22;0.30;95.40
24456;DHT22;12628;50.860;5.714;2023-02-26T00:06:49;0.30;99.90
24456;DHT22;12628;50.860;5.714;2023-02-26T00:09:20;0.20;99.90
24456;DHT22;12628;50.860;5.714;2023-02-26T00:11:48;0.20;99.90
24456;DHT22;12628;50.860;5.714;2023-02-26T00:14:16;0.10;99.90
24456;DHT22;12628;50.860;5.714;2023-02-26T00:16:47;0.10;99.90
24456;DHT22;12628;50.860;5.714;2023-02-26T00:19:18;0.00;99.90
24456;DHT22;12628;50.860;5.714;2023-02-26T00:21:45;0.00;99.90
24456;DHT22;12628;50.860;5.714;2023-02-26T00:24:13;-0.10;99.90
24456;DHT22;12628;50.860;5.714;2023-02-26T00:26:40;-0.30;99.90
24456;DHT22;12628;50.860;5.714;2023-02-26T00:29:08;-0.40;1.00
24456;DHT22;12628;50.860;5.714;2023-02-26T00:31:36;-0.40;1.00
24456;DHT22;12628;50.860;5.714;2023-02-26T00:34:03;-0.40;1.00
24456;DHT22;12628;50.860;5.714;2023-02-26T00:36:39;-0.30;1.00
24456;DHT22;12628;50.860;5.714;2023-02-26T00:39:18;-0.30;1.00
24456;DHT22;12628;50.860;5.714;2023-02-26T00:41:49;-0.30;1.00
24456;DHT22;12628;50.860;5.714;2023-02-26T00:44:16;-0.40;1.00
24456;DHT22;12628;50.860;5.714;2023-02-26T00:46:50;-0.50;1.00
24456;DHT22;12628;50.860;5.714;2023-02-26T00:49:30;-0.50;1.00
24456;DHT22;12628;50.860;5.714;2023-02-26T00:52:05;-0.50;1.00
24456;DHT22;12628;50.860;5.714;2023-02-26T00:54:38;-0.40;1.00
24456;DHT22;12628;50.860;5.714;2023-02-26T00:57:05;-0.50;1.00
24456;DHT22;12628;50.860;5.714;2023-02-26T00:59:32;-0.50;1.00
24456;DHT22;12628;50.860;5.714;2023-02-26T01:02:00;-0.50;1.00
24456;DHT22;12628;50.860;5.714;2023-02-26T01:04:27;-0.60;1.00
24456;DHT22;12628;50.860;5.714;2023-02-26T01:06:56;-0.50;1.00
24456;DHT22;12628;50.860;5.714;2023-02-26T01:09:27;-0.40;1.00
24456;DHT22;12628;50.860;5.714;2023-02-26T01:11:56;-0.50;1.00
24456;DHT22;12628;50.860;5.714;2023-02-26T01:14:28;-0.50;1.00
24456;DHT22;12628;50.860;5.714;2023-02-26T01:17:00;-0.60;1.00
24456;DHT22;12628;50.860;5.714;2023-02-26T01:19:32;-0.60;1.00
24456;DHT22;12628;50.860;5.714;2023-02-26T01:22:09;-0.60;1.00
24456;DHT22;12628;50.860;5.714;2023-02-26T01:24:40;-0.70;1.00
24456;DHT22;12628;50.860;5.714;2023-02-26T01:27:08;-0.80;1.00
24456;DHT22;12628;50.860;5.714;2023-02-26T01:29:35;-0.90;1.00
24456;DHT22;12628;50.860;5.714;2023-02-26T01:32:07;-0.90;1.00
24456;DHT22;12628;50.860;5.714;2023-02-26T01:34:41;-0.80;1.00
24456;DHT22;12628;50.860;5.714;2023-02-26T01:37:20;-0.80;1.00
24456;DHT22;12628;50.860;5.714;2023-02-26T01:40:02;-0.80;1.00
24456;DHT22;12628;50.860;5.714;2023-02-26T01:42:35;-0.80;1.00
24456;DHT22;12628;50.860;5.714;2023-02-26T01:45:10;-0.90;1.00
24456;DHT22;12628;50.860;5.714;2023-02-26T01:47:42;-0.80;1.00
24456;DHT22;12628;50.860;5.714;2023-02-26T01:50:13;-0.70;1.00
24456;DHT22;12628;50.860;5.714;2023-02-26T01:53:18;-0.50;99.90
24456;DHT22;12628;50.860;5.714;2023-02-26T01:55:49;-0.40;99.90
24456;DHT22;12628;50.860;5.714;2023-02-26T01:58:19;-0.40;99.90
24456;DHT22;12628;50.860;5.714;2023-02-26T02:00:47;-0.30;99.90
24456;DHT22;12628;50.860;5.714;2023-02-26T02:03:14;-0.40;99.90
24456;DHT22;12628;50.860;5.714;2023-02-26T02:05:45;-0.40;99.90
24456;DHT22;12628;50.860;5.714;2023-02-26T02:08:14;-0.40;99.90
24456;DHT22;12628;50.860;5.714;2023-02-26T02:10:43;-0.40;99.90
24456;DHT22;12628;50.860;5.714;2023-02-26T02:13:21;-0.40;99.90
24456;DHT22;12628;50.860;5.714;2023-02-26T02:15:57;-0.30;99.90
24456;DHT22;12628;50.860;5.714;2023-02-26T02:18:34;-0.30;99.90
24456;DHT22;12628;50.860;5.714;2023-02-26T02:24:02;-0.20;99.90
24456;DHT22;12628;50.860;5.714;2023-02-26T02:30:03;-0.10;99.90
24456;DHT22;12628;50.860;5.714;2023-02-26T02:32:38;0.00;99.90
24456;DHT22;12628;50.860;5.714;2023-02-26T02:35:14;0.00;99.90
24456;DHT22;12628;50.860;5.714;2023-02-26T02:37:46;0.10;99.90
24456;DHT22;12628;50.860;5.714;2023-02-26T02:40:17;0.10;99.90
24456;DHT22;12628;50.860;5.714;2023-02-26T02:42:50;0.10;99.90
24456;DHT22;12628;50.860;5.714;2023-02-26T02:45:21;0.10;99.90
24456;DHT22;12628;50.860;5.714;2023-02-26T02:47:56;0.20;99.90
24456;DHT22;12628;50.860;5.714;2023-02-26T02:50:28;0.20;99.90
24456;DHT22;12628;50.860;5.714;2023-02-26T02:53:00;0.20;99.90
24456;DHT22;12628;50.860;5.714;2023-02-26T02:55:30;0.20;99.90
24456;DHT22;12628;50.860;5.714;2023-02-26T02:58:02;0.20;99.90
24456;DHT22;12628;50.860;5.714;2023-02-26T03:00:30;0.20;79.80
24456;DHT22;12628;50.860;5.714;2023-02-26T03:03:08;0.20;93.50
24456;DHT22;12628;50.860;5.714;2023-02-26T03:05:37;0.20;93.80
24456;DHT22;12628;50.860;5.714;2023-02-26T03:08:07;0.20;76.50
24456;DHT22;12628;50.860;5.714;2023-02-26T03:10:36;0.10;59.50
24456;DHT22;12628;50.860;5.714;2023-02-26T03:13:04;0.00;47.90
24456;DHT22;12628;50.860;5.714;2023-02-26T03:15:37;-0.10;73.20
24456;DHT22;12628;50.860;5.714;2023-02-26T03:18:17;-0.30;99.90
24456;DHT22;12628;50.860;5.714;2023-02-26T03:20:52;-0.40;99.90
24456;DHT22;12628;50.860;5.714;2023-02-26T03:23:26;-0.50;99.90
24456;DHT22;12628;50.860;5.714;2023-02-26T03:26:09;-0.50;99.90
24456;DHT22;12628;50.860;5.714;2023-02-26T03:28:43;-0.60;99.90
24456;DHT22;12628;50.860;5.714;2023-02-26T03:31:16;-0.70;1.00
24456;DHT22;12628;50.860;5.714;2023-02-26T03:33:50;-0.60;1.00
24456;DHT22;12628;50.860;5.714;2023-02-26T03:36:23;-0.70;1.00
24456;DHT22;12628;50.860;5.714;2023-02-26T03:38:54;-0.60;1.00
24456;DHT22;12628;50.860;5.714;2023-02-26T03:41:28;-0.70;1.00
24456;DHT22;12628;50.860;5.714;2023-02-26T03:44:00;-0.70;1.00
24456;DHT22;12628;50.860;5.714;2023-02-26T03:46:33;-0.70;1.00
24456;DHT22;12628;50.860;5.714;2023-02-26T03:49:08;-0.80;1.00
24456;DHT22;12628;50.860;5.714;2023-02-26T03:51:37;-0.80;1.00
24456;DHT22;12628;50.860;5.714;2023-02-26T03:54:09;-0.80;1.00
24456;DHT22;12628;50.860;5.714;2023-02-26T03:56:41;-0.80;1.00
24456;DHT22;12628;50.860;5.714;2023-02-26T03:59:09;-0.90;1.00
24456;DHT22;12628;50.860;5.714;2023-02-26T04:01:40;-1.00;1.00
24456;DHT22;12628;50.860;5.714;2023-02-26T04:04:15;-1.10;1.00
24456;DHT22;12628;50.860;5.714;2023-02-26T04:06:43;-1.10;99.90
24456;DHT22;12628;50.860;5.714;2023-02-26T04:09:11;-1.00;99.90
24456;DHT22;12628;50.860;5.714;2023-02-26T04:11:39;-1.00;99.90
24456;DHT22;12628;50.860;5.714;2023-02-26T04:14:06;-1.00;99.90
24456;DHT22;12628;50.860;5.714;2023-02-26T04:16:33;-1.00;99.90
24456;DHT22;12628;50.860;5.714;2023-02-26T04:19:00;-1.10;99.90
24456;DHT22;12628;50.860;5.714;2023-02-26T04:21:29;-1.10;99.90
24456;DHT22;12628;50.860;5.714;2023-02-26T04:23:56;-1.10;99.90
24456;DHT22;12628;50.860;5.714;2023-02-26T04:26:23;-1.20;1.00
24456;DHT22;12628;50.860;5.714;2023-02-26T04:28:51;-1.20;1.00
24456;DHT22;12628;50.860;5.714;2023-02-26T04:31:18;-1.10;1.00
24456;DHT22;12628;50.860;5.714;2023-02-26T04:33:45;-1.10;1.00
24456;DHT22;12628;50.860;5.714;2023-02-26T04:36:12;-1.20;1.00
24456;DHT22;12628;50.860;5.714;2023-02-26T04:38:41;-1.20;1.00
24456;DHT22;12628;50.860;5.714;2023-02-26T04:41:08;-1.30;1.00
24456;DHT22;12628;50.860;5.714;2023-02-26T04:43:35;-1.30;1.00
24456;DHT22;12628;50.860;5.714;2023-02-26T04:46:03;-1.40;1.00
24456;DHT22;12628;50.860;5.714;2023-02-26T04:48:30;-1.40;1.00
24456;DHT22;12628;50.860;5.714;2023-02-26T04:50:57;-1.40;1.00
24456;DHT22;12628;50.860;5.714;2023-02-26T04:53:25;-1.30;99.90
24456;DHT22;12628;50.860;5.714;2023-02-26T04:55:53;-1.30;7.40
24456;DHT22;12628;50.860;5.714;2023-02-26T04:58:20;-1.30;99.90
24456;DHT22;12628;50.860;5.714;2023-02-26T05:00:49;-1.40;99.90
24456;DHT22;12628;50.860;5.714;2023-02-26T05:03:16;-1.30;1.00
24456;DHT22;12628;50.860;5.714;2023-02-26T05:05:44;-1.30;99.90
24456;DHT22;12628;50.860;5.714;2023-02-26T05:08:11;-1.30;99.90
24456;DHT22;12628;50.860;5.714;2023-02-26T05:10:39;-1.30;99.90
24456;DHT22;12628;50.860;5.714;2023-02-26T05:13:07;-1.40;99.90
24456;DHT22;12628;50.860;5.714;2023-02-26T05:15:34;-1.30;1.00
24456;DHT22;12628;50.860;5.714;2023-02-26T05:18:02;-1.30;1.00
24456;DHT22;12628;50.860;5.714;2023-02-26T05:20:29;-1.40;1.00
24456;DHT22;12628;50.860;5.714;2023-02-26T05:22:56;-1.30;1.00
24456;DHT22;12628;50.860;5.714;2023-02-26T05:25:23;-1.40;1.00
24456;DHT22;12628;50.860;5.714;2023-02-26T05:27:50;-1.50;1.00
24456;DHT22;12628;50.860;5.714;2023-02-26T05:30:19;-1.50;1.00
24456;DHT22;12628;50.860;5.714;2023-02-26T05:32:47;-1.50;1.00
24456;DHT22;12628;50.860;5.714;2023-02-26T05:35:14;-1.50;1.00
24456;DHT22;12628;50.860;5.714;2023-02-26T05:37:41;-1.60;5.00
24456;DHT22;12628;50.860;5.714;2023-02-26T05:40:09;-1.60;1.00
24456;DHT22;12628;50.860;5.714;2023-02-26T05:42:37;-1.50;99.90
24456;DHT22;12628;50.860;5.714;2023-02-26T05:45:06;-1.50;1.00
24456;DHT22;12628;50.860;5.714;2023-02-26T05:47:35;-1.50;28.20
24456;DHT22;12628;50.860;5.714;2023-02-26T05:50:03;-1.60;99.90
24456;DHT22;12628;50.860;5.714;2023-02-26T05:52:31;-1.60;99.90
24456;DHT22;12628;50.860;5.714;2023-02-26T05:54:58;-1.60;99.90
24456;DHT22;12628;50.860;5.714;2023-02-26T05:57:25;-1.60;99.90
24456;DHT22;12628;50.860;5.714;2023-02-26T05:59:53;-1.60;1.00
24456;DHT22;12628;50.860;5.714;2023-02-26T06:02:20;-1.70;65.50
24456;DHT22;12628;50.860;5.714;2023-02-26T06:04:49;-1.60;1.00
24456;DHT22;12628;50.860;5.714;2023-02-26T06:07:16;-1.50;1.00
24456;DHT22;12628;50.860;5.714;2023-02-26T06:09:43;-1.60;1.00
24456;DHT22;12628;50.860;5.714;2023-02-26T06:12:11;-1.50;1.00
24456;DHT22;12628;50.860;5.714;2023-02-26T06:14:38;-1.50;1.00
24456;DHT22;12628;50.860;5.714;2023-02-26T06:17:08;-1.50;1.00
24456;DHT22;12628;50.860;5.714;2023-02-26T06:19:35;-1.50;99.90
24456;DHT22;12628;50.860;5.714;2023-02-26T06:22:04;-1.50;99.90
24456;DHT22;12628;50.860;5.714;2023-02-26T06:24:31;-1.50;1.00
24456;DHT22;12628;50.860;5.714;2023-02-26T06:26:58;-1.40;1.00
24456;DHT22;12628;50.860;5.714;2023-02-26T06:29:26;-1.30;1.00
24456;DHT22;12628;50.860;5.714;2023-02-26T06:31:53;-1.10;99.90
24456;DHT22;12628;50.860;5.714;2023-02-26T06:34:20;-1.10;99.90
24456;DHT22;12628;50.860;5.714;2023-02-26T06:36:48;-1.20;99.90
24456;DHT22;12628;50.860;5.714;2023-02-26T06:39:16;-1.20;99.90
24456;DHT22;12628;50.860;5.714;2023-02-26T06:41:44;-1.00;48.00
24456;DHT22;12628;50.860;5.714;2023-02-26T06:44:11;-1.00;1.00
24456;DHT22;12628;50.860;5.714;2023-02-26T06:46:38;-0.90;1.00
24456;DHT22;12628;50.860;5.714;2023-02-26T06:49:06;-0.90;1.00
24456;DHT22;12628;50.860;5.714;2023-02-26T06:51:34;-0.70;1.00
24456;DHT22;12628;50.860;5.714;2023-02-26T06:54:01;-0.40;1.00
24456;DHT22;12628;50.860;5.714;2023-02-26T06:56:30;-0.10;99.90
24456;DHT22;12628;50.860;5.714;2023-02-26T06:58:57;0.20;99.90
24456;DHT22;12628;50.860;5.714;2023-02-26T07:01:25;0.50;1.00
24456;DHT22;12628;50.860;5.714;2023-02-26T07:03:52;0.60;1.00
24456;DHT22;12628;50.860;5.714;2023-02-26T07:06:19;0.80;1.00
24456;DHT22;12628;50.860;5.714;2023-02-26T07:08:46;1.10;1.00
24456;DHT22;12628;50.860;5.714;2023-02-26T07:11:14;1.00;1.00
24456;DHT22;12628;50.860;5.714;2023-02-26T07:13:42;1.20;1.00
24456;DHT22;12628;50.860;5.714;2023-02-26T07:16:09;1.20;1.00
24456;DHT22;12628;50.860;5.714;2023-02-26T07:18:37;1.50;1.00
24456;DHT22;12628;50.860;5.714;2023-02-26T07:21:04;1.80;1.00
24456;DHT22;12628;50.860;5.714;2023-02-26T07:23:32;1.40;1.00
24456;DHT22;12628;50.860;5.714;2023-02-26T07:25:59;1.80;1.00
24456;DHT22;12628;50.860;5.714;2023-02-26T07:28:27;1.50;1.00
24456;DHT22;12628;50.860;5.714;2023-02-26T07:30:56;1.50;1.00
24456;DHT22;12628;50.860;5.714;2023-02-26T07:33:24;2.10;99.90
24456;DHT22;12628;50.860;5.714;2023-02-26T07:35:53;2.40;99.90
24456;DHT22;12628;50.860;5.714;2023-02-26T07:38:20;2.90;99.90
24456;DHT22;12628;50.860;5.714;2023-02-26T07:40:48;3.10;99.90
24456;DHT22;12628;50.860;5.714;2023-02-26T07:43:15;3.00;99.90
24456;DHT22;12628;50.860;5.714;2023-02-26T07:45:42;3.00;99.90
24456;DHT22;12628;50.860;5.714;2023-02-26T07:48:11;2.90;99.90
24456;DHT22;12628;50.860;5.714;2023-02-26T07:50:38;2.90;99.90
24456;DHT22;12628;50.860;5.714;2023-02-26T07:53:05;3.00;99.90
24456;DHT22;12628;50.860;5.714;2023-02-26T07:55:33;3.40;99.90
24456;DHT22;12628;50.860;5.714;2023-02-26T07:58:00;4.30;16.10
24456;DHT22;12628;50.860;5.714;2023-02-26T08:00:27;4.00;29.80
24456;DHT22;12628;50.860;5.714;2023-02-26T08:02:54;3.10;73.70
24456;DHT22;12628;50.860;5.714;2023-02-26T08:05:23;3.60;41.60
24456;DHT22;12628;50.860;5.714;2023-02-26T08:07:50;4.10;1.00
24456;DHT22;12628;50.860;5.714;2023-02-26T08:10:18;3.80;1.00
24456;DHT22;12628;50.860;5.714;2023-02-26T08:12:45;3.70;1.00
24456;DHT22;12628;50.860;5.714;2023-02-26T08:15:12;3.00;40.30
24456;DHT22;12628;50.860;5.714;2023-02-26T08:17:39;3.30;87.20
24456;DHT22;12628;50.860;5.714;2023-02-26T08:20:08;3.60;1.00
24456;DHT22;12628;50.860;5.714;2023-02-26T08:22:38;3.10;1.00
24456;DHT22;12628;50.860;5.714;2023-02-26T08:25:06;3.70;1.00
24456;DHT22;12628;50.860;5.714;2023-02-26T08:27:33;3.70;1.00
24456;DHT22;12628;50.860;5.714;2023-02-26T08:30:00;3.40;1.00
24456;DHT22;12628;50.860;5.714;2023-02-26T08:32:28;3.90;1.00
24456;DHT22;12628;50.860;5.714;2023-02-26T08:34:55;4.30;1.00
24456;DHT22;12628;50.860;5.714;2023-02-26T08:37:22;4.40;1.00
24456;DHT22;12628;50.860;5.714;2023-02-26T08:39:52;4.40;1.00
24456;DHT22;12628;50.860;5.714;2023-02-26T08:42:19;4.70;1.00
24456;DHT22;12628;50.860;5.714;2023-02-26T08:44:46;4.80;1.00
24456;DHT22;12628;50.860;5.714;2023-02-26T08:47:14;4.30;1.00
24456;DHT22;12628;50.860;5.714;2023-02-26T08:49:41;3.90;1.00
24456;DHT22;12628;50.860;5.714;2023-02-26T08:52:08;4.40;1.00
24456;DHT22;12628;50.860;5.714;2023-02-26T08:54:36;5.40;1.00
24456;DHT22;12628;50.860;5.714;2023-02-26T08:57:04;5.70;1.00
24456;DHT22;12628;50.860;5.714;2023-02-26T08:59:32;4.10;1.00
24456;DHT22;12628;50.860;5.714;2023-02-26T09:01:59;5.10;1.00
24456;DHT22;12628;50.860;5.714;2023-02-26T09:04:26;5.10;1.00
24456;DHT22;12628;50.860;5.714;2023-02-26T09:06:53;5.20;1.00
24456;DHT22;12628;50.860;5.714;2023-02-26T09:09:21;5.80;1.00
24456;DHT22;12628;50.860;5.714;2023-02-26T09:11:48;4.50;1.00
24456;DHT22;12628;50.860;5.714;2023-02-26T09:14:16;5.70;1.00
24456;DHT22;12628;50.860;5.714;2023-02-26T09:16:44;5.40;1.00
24456;DHT22;12628;50.860;5.714;2023-02-26T09:19:11;5.40;1.00
24456;DHT22;12628;50.860;5.714;2023-02-26T09:21:38;5.30;1.00
24456;DHT22;12628;50.860;5.714;2023-02-26T09:24:06;5.10;1.00
24456;DHT22;12628;50.860;5.714;2023-02-26T09:26:34;4.50;1.00
24456;DHT22;12628;50.860;5.714;2023-02-26T09:29:03;4.10;1.00
24456;DHT22;12628;50.860;5.714;2023-02-26T09:31:32;4.70;1.00
24456;DHT22;12628;50.860;5.714;2023-02-26T09:33:59;5.10;1.00
24456;DHT22;12628;50.860;5.714;2023-02-26T09:36:26;5.70;1.00
24456;DHT22;12628;50.860;5.714;2023-02-26T09:38:55;5.60;1.00
24456;DHT22;12628;50.860;5.714;2023-02-26T09:41:30;5.30;1.00
24456;DHT22;12628;50.860;5.714;2023-02-26T09:44:18;4.30;1.00
24456;DHT22;12628;50.860;5.714;2023-02-26T09:46:59;4.50;1.00
24456;DHT22;12628;50.860;5.714;2023-02-26T09:49:44;4.70;1.00
24456;DHT22;12628;50.860;5.714;2023-02-26T09:52:21;5.60;1.00
24456;DHT22;12628;50.860;5.714;2023-02-26T09:54:52;6.40;1.00
24456;DHT22;12628;50.860;5.714;2023-02-26T09:57:28;6.60;1.00
24456;DHT22;12628;50.860;5.714;2023-02-26T09:59:57;6.50;1.00
24456;DHT22;12628;50.860;5.714;2023-02-26T10:02:34;7.00;1.00
24456;DHT22;12628;50.860;5.714;2023-02-26T10:05:15;7.00;1.00
24456;DHT22;12628;50.860;5.714;2023-02-26T10:07:49;5.70;1.00
24456;DHT22;12628;50.860;5.714;2023-02-26T10:10:27;5.70;1.00
24456;DHT22;12628;50.860;5.714;2023-02-26T10:12:56;6.10;1.00
24456;DHT22;12628;50.860;5.714;2023-02-26T10:15:29;5.00;1.00
24456;DHT22;12628;50.860;5.714;2023-02-26T10:18:05;5.80;1.00
24456;DHT22;12628;50.860;5.714;2023-02-26T10:20:42;6.50;1.00
24456;DHT22;12628;50.860;5.714;2023-02-26T10:23:22;6.80;1.00
24456;DHT22;12628;50.860;5.714;2023-02-26T10:25:53;7.40;1.00
24456;DHT22;12628;50.860;5.714;2023-02-26T10:28:53;6.00;1.00
24456;DHT22;12628;50.860;5.714;2023-02-26T10:31:28;5.40;1.00
24456;DHT22;12628;50.860;5.714;2023-02-26T10:34:09;6.00;1.00
24456;DHT22;12628;50.860;5.714;2023-02-26T10:36:44;5.70;1.00
24456;DHT22;12628;50.860;5.714;2023-02-26T10:39:21;5.30;1.00
24456;DHT22;12628;50.860;5.714;2023-02-26T10:41:50;5.00;1.00
24456;DHT22;12628;50.860;5.714;2023-02-26T10:44:23;4.10;1.00
24456;DHT22;12628;50.860;5.714;2023-02-26T10:47:11;3.80;1.00
24456;DHT22;12628;50.860;5.714;2023-02-26T10:49:52;3.60;1.00
24456;DHT22;12628;50.860;5.714;2023-02-26T10:52:23;3.50;1.00
24456;DHT22;12628;50.860;5.714;2023-02-26T10:55:03;4.20;1.00
24456;DHT22;12628;50.860;5.714;2023-02-26T10:57:34;4.40;1.00
24456;DHT22;12628;50.860;5.714;2023-02-26T11:00:05;4.90;1.00
24456;DHT22;12628;50.860;5.714;2023-02-26T11:02:38;5.20;1.00
24456;DHT22;12628;50.860;5.714;2023-02-26T11:05:15;5.10;1.00
24456;DHT22;12628;50.860;5.714;2023-02-26T11:07:44;6.40;1.00
24456;DHT22;12628;50.860;5.714;2023-02-26T11:10:16;6.00;1.00
24456;DHT22;12628;50.860;5.714;2023-02-26T11:12:43;5.90;1.00
24456;DHT22;12628;50.860;5.714;2023-02-26T11:15:13;6.20;1.00
24456;DHT22;12628;50.860;5.714;2023-02-26T11:17:41;6.70;99.90
24456;DHT22;12628;50.860;5.714;2023-02-26T11:20:20;6.60;1.00
24456;DHT22;12628;50.860;5.714;2023-02-26T11:22:52;7.80;1.00
24456;DHT22;12628;50.860;5.714;2023-02-26T11:25:24;7.70;1.00
24456;DHT22;12628;50.860;5.714;2023-02-26T11:27:59;7.80;99.90
24456;DHT22;12628;50.860;5.714;2023-02-26T11:30:30;7.00;1.00
24456;DHT22;12628;50.860;5.714;2023-02-26T11:33:03;6.60;1.00
24456;DHT22;12628;50.860;5.714;2023-02-26T11:35:33;7.70;1.00
24456;DHT22;12628;50.860;5.714;2023-02-26T11:38:01;6.70;1.00
24456;DHT22;12628;50.860;5.714;2023-02-26T11:40:34;4.40;1.00
24456;DHT22;12628;50.860;5.714;2023-02-26T11:43:05;3.70;1.90
24456;DHT22;12628;50.860;5.714;2023-02-26T11:45:37;3.80;1.00
24456;DHT22;12628;50.860;5.714;2023-02-26T11:48:06;5.00;1.00
24456;DHT22;12628;50.860;5.714;2023-02-26T11:50:44;5.60;99.90
24456;DHT22;12628;50.860;5.714;2023-02-26T11:53:18;5.40;99.90
24456;DHT22;12628;50.860;5.714;2023-02-26T11:55:51;4.40;99.90
24456;DHT22;12628;50.860;5.714;2023-02-26T11:58:20;3.80;99.90
24456;DHT22;12628;50.860;5.714;2023-02-26T12:00:51;4.50;99.90
24456;DHT22;12628;50.860;5.714;2023-02-26T12:03:20;5.10;38.60
24456;DHT22;12628;50.860;5.714;2023-02-26T12:05:50;5.30;99.90
24456;DHT22;12628;50.860;5.714;2023-02-26T12:08:24;6.50;1.00
24456;DHT22;12628;50.860;5.714;2023-02-26T12:11:02;6.20;99.90
24456;DHT22;12628;50.860;5.714;2023-02-26T12:13:40;6.50;99.90
24456;DHT22;12628;50.860;5.714;2023-02-26T12:16:16;7.30;99.90
24456;DHT22;12628;50.860;5.714;2023-02-26T12:18:57;6.50;1.00
24456;DHT22;12628;50.860;5.714;2023-02-26T12:25:20;6.30;99.90
24456;DHT22;12628;50.860;5.714;2023-02-26T12:28:22;6.80;1.00
24456;DHT22;12628;50.860;5.714;2023-02-26T12:31:08;7.30;1.00
24456;DHT22;12628;50.860;5.714;2023-02-26T12:33:47;6.80;1.00
24456;DHT22;12628;50.860;5.714;2023-02-26T12:36:25;6.40;1.00
24456;DHT22;12628;50.860;5.714;2023-02-26T12:39:04;7.20;1.00
24456;DHT22;12628;50.860;5.714;2023-02-26T12:41:45;7.10;1.00
24456;DHT22;12628;50.860;5.714;2023-02-26T12:44:24;7.30;99.90
24456;DHT22;12628;50.860;5.714;2023-02-26T12:47:08;6.30;99.90
24456;DHT22;12628;50.860;5.714;2023-02-26T12:49:50;5.80;1.00
24456;DHT22;12628;50.860;5.714;2023-02-26T12:52:44;6.20;1.00
24456;DHT22;12628;50.860;5.714;2023-02-26T12:55:26;6.60;1.00
24456;DHT22;12628;50.860;5.714;2023-02-26T12:58:11;7.40;57.60
24456;DHT22;12628;50.860;5.714;2023-02-26T13:01:07;7.20;28.60
24456;DHT22;12628;50.860;5.714;2023-02-26T13:09:48;5.50;1.00
24456;DHT22;12628;50.860;5.714;2023-02-26T13:12:38;5.60;1.00
24456;DHT22;12628;50.860;5.714;2023-02-26T13:15:24;4.90;1.00
24456;DHT22;12628;50.860;5.714;2023-02-26T13:18:00;4.50;1.00
24456;DHT22;12628;50.860;5.714;2023-02-26T13:20:30;4.80;1.00
24456;DHT22;12628;50.860;5.714;2023-02-26T13:23:02;4.60;1.00
24456;DHT22;12628;50.860;5.714;2023-02-26T13:25:37;4.90;1.00
24456;DHT22;12628;50.860;5.714;2023-02-26T13:28:29;4.70;6.90
24456;DHT22;12628;50.860;5.714;2023-02-26T13:31:00;4.80;65.10
24456;DHT22;12628;50.860;5.714;2023-02-26T13:33:31;4.80;1.00
24456;DHT22;12628;50.860;5.714;2023-02-26T13:36:00;4.10;1.00
24456;DHT22;12628;50.860;5.714;2023-02-26T13:38:39;4.40;1.00
24456;DHT22;12628;50.860;5.714;2023-02-26T13:41:13;4.30;1.00
24456;DHT22;12628;50.860;5.714;2023-02-26T13:44:00;4.50;1.00
24456;DHT22;12628;50.860;5.714;2023-02-26T13:46:41;4.50;1.00
24456;DHT22;12628;50.860;5.714;2023-02-26T13:49:17;4.40;14.10
24456;DHT22;12628;50.860;5.714;2023-02-26T13:51:47;4.50;1.00
24456;DHT22;12628;50.860;5.714;2023-02-26T13:54:32;4.50;1.00
24456;DHT22;12628;50.860;5.714;2023-02-26T13:57:20;4.40;1.00
24456;DHT22;12628;50.860;5.714;2023-02-26T14:00:06;4.50;99.90
24456;DHT22;12628;50.860;5.714;2023-02-26T14:02:50;4.60;1.00
24456;DHT22;12628;50.860;5.714;2023-02-26T14:05:51;4.60;89.70
24456;DHT22;12628;50.860;5.714;2023-02-26T14:08:38;4.20;4.90
24456;DHT22;12628;50.860;5.714;2023-02-26T14:11:32;4.20;1.00
24456;DHT22;12628;50.860;5.714;2023-02-26T14:14:10;4.30;1.00
24456;DHT22;12628;50.860;5.714;2023-02-26T14:16:40;4.50;99.90
24456;DHT22;12628;50.860;5.714;2023-02-26T14:19:22;4.30;28.40
24456;DHT22;12628;50.860;5.714;2023-02-26T14:21:51;4.40;99.90
24456;DHT22;12628;50.860;5.714;2023-02-26T14:24:22;4.30;99.90
24456;DHT22;12628;50.860;5.714;2023-02-26T14:26:49;4.20;1.00
24456;DHT22;12628;50.860;5.714;2023-02-26T14:29:22;4.10;1.00
24456;DHT22;12628;50.860;5.714;2023-02-26T14:32:14;4.20;1.00
24456;DHT22;12628;50.860;5.714;2023-02-26T14:34:49;4.20;1.00
24456;DHT22;12628;50.860;5.714;2023-02-26T14:37:20;4.20;1.00
24456;DHT22;12628;50.860;5.714;2023-02-26T14:39:49;4.10;1.00
24456;DHT22;12628;50.860;5.714;2023-02-26T14:42:23;3.90;1.00
24456;DHT22;12628;50.860;5.714;2023-02-26T14:45:15;3.90;1.00
24456;DHT22;12628;50.860;5.714;2023-02-26T14:47:46;4.10;1.00
24456;DHT22;12628;50.860;5.714;2023-02-26T14:50:17;4.20;1.00
24456;DHT22;12628;50.860;5.714;2023-02-26T14:55:50;4.00;1.00
24456;DHT22;12628;50.860;5.714;2023-02-26T15:01:29;4.20;1.00
24456;DHT22;12628;50.860;5.714;2023-02-26T15:07:29;4.20;1.00
24456;DHT22;12628;50.860;5.714;2023-02-26T15:10:11;4.30;1.00
24456;DHT22;12628;50.860;5.714;2023-02-26T15:12:51;4.30;99.90
24456;DHT22;12628;50.860;5.714;2023-02-26T15:15:29;4.20;1.00
24456;DHT22;12628;50.860;5.714;2023-02-26T15:18:19;4.10;1.00
24456;DHT22;12628;50.860;5.714;2023-02-26T15:20:56;3.90;1.00
24456;DHT22;12628;50.860;5.714;2023-02-26T15:23:37;4.00;1.00
24456;DHT22;12628;50.860;5.714;2023-02-26T15:26:06;4.20;1.00
24456;DHT22;12628;50.860;5.714;2023-02-26T15:28:38;4.30;1.00
24456;DHT22;12628;50.860;5.714;2023-02-26T15:31:07;4.30;1.00
24456;DHT22;12628;50.860;5.714;2023-02-26T15:33:34;4.20;1.00
24456;DHT22;12628;50.860;5.714;2023-02-26T15:36:06;4.10;1.00
24456;DHT22;12628;50.860;5.714;2023-02-26T15:38:44;4.00;1.00
24456;DHT22;12628;50.860;5.714;2023-02-26T15:41:12;3.90;1.00
24456;DHT22;12628;50.860;5.714;2023-02-26T15:43:42;4.00;1.00
24456;DHT22;12628;50.860;5.714;2023-02-26T15:46:11;4.00;1.00
24456;DHT22;12628;50.860;5.714;2023-02-26T15:48:39;4.00;1.00
24456;DHT22;12628;50.860;5.714;2023-02-26T15:51:09;3.90;1.00
24456;DHT22;12628;50.860;5.714;2023-02-26T15:53:42;3.90;1.00
24456;DHT22;12628;50.860;5.714;2023-02-26T15:56:12;3.90;1.00
24456;DHT22;12628;50.860;5.714;2023-02-26T15:58:47;3.80;1.00
24456;DHT22;12628;50.860;5.714;2023-02-26T16:01:16;3.80;1.00
24456;DHT22;12628;50.860;5.714;2023-02-26T16:03:44;3.80;1.00
24456;DHT22;12628;50.860;5.714;2023-02-26T16:06:21;3.90;1.00
24456;DHT22;12628;50.860;5.714;2023-02-26T16:08:50;3.80;1.00
24456;DHT22;12628;50.860;5.714;2023-02-26T16:11:19;3.90;1.00
24456;DHT22;12628;50.860;5.714;2023-02-26T16:13:49;3.90;1.00
24456;DHT22;12628;50.860;5.714;2023-02-26T16:16:21;3.90;99.90
24456;DHT22;12628;50.860;5.714;2023-02-26T16:18:51;3.90;1.00
24456;DHT22;12628;50.860;5.714;2023-02-26T16:21:28;3.90;1.00
24456;DHT22;12628;50.860;5.714;2023-02-26T16:23:59;3.80;1.00
24456;DHT22;12628;50.860;5.714;2023-02-26T16:26:30;3.80;99.90
24456;DHT22;12628;50.860;5.714;2023-02-26T16:29:01;3.80;99.90
24456;DHT22;12628;50.860;5.714;2023-02-26T16:31:31;3.80;99.90
24456;DHT22;12628;50.860;5.714;2023-02-26T16:34:03;3.70;99.90
24456;DHT22;12628;50.860;5.714;2023-02-26T16:36:38;3.70;1.00
24456;DHT22;12628;50.860;5.714;2023-02-26T16:39:18;3.70;99.90
24456;DHT22;12628;50.860;5.714;2023-02-26T16:41:47;3.70;99.90
24456;DHT22;12628;50.860;5.714;2023-02-26T16:44:38;3.70;99.90
24456;DHT22;12628;50.860;5.714;2023-02-26T16:47:08;3.70;1.00